sensor_id;sensor_type;location;lat;lon;timestamp;temperature;humidity
43627;DHT22;29217;52.586;13.442;2022-07-17T00:01:57;13.70;99.90
43627;DHT22;29217;52.586;13.442;2022-07-17T00:04:22;13.70;99.90
43627;DHT22;29217;52.586;13.442;2022-07-17T00:06:48;13.60;99.90
43627;DHT22;29217;52.586;13.442;2022-07-17T00:09:14;13.60;99.90
43627;DHT22;29217;52.586;13.442;2022-07-17T00:11:39;13.60;99.90
43627;DHT22;29217;52.586;13.442;2022-07-17T00:14:05;13.60;99.90
43627;DHT22;29217;52.586;13.442;2022-07-17T00:16:30;13.50;99.90
43627;DHT22;29217;52.586;13.442;2022-07-17T00:18:56;13.50;99.90
43627;DHT22;29217;52.586;13.442;2022-07-17T00:21:22;13.40;99.90
43627;DHT22;29217;52.586;13.442;2022-07-17T00:23:47;13.40;99.90
43627;DHT22;29217;52.586;13.442;2022-07-17T00:26:13;13.40;99.90
43627;DHT22;29217;52.586;13.442;2022-07-17T00:28:38;13.30;99.90
43627;DHT22;29217;52.586;13.442;2022-07-17T00:31:04;13.20;99.90
43627;DHT22;29217;52.586;13.442;2022-07-17T00:33:30;13.10;99.90
43627;DHT22;29217;52.586;13.442;2022-07-17T00:35:56;13.00;99.90
43627;DHT22;29217;52.586;13.442;2022-07-17T00:38:22;12.90;99.90
43627;DHT22;29217;52.586;13.442;2022-07-17T00:40:47;12.80;99.90
43627;DHT22;29217;52.586;13.442;2022-07-17T00:43:13;12.80;99.90
43627;DHT22;29217;52.586;13.442;2022-07-17T00:45:38;12.80;99.90
43627;DHT22;29217;52.586;13.442;2022-07-17T00:48:05;12.80;99.90
43627;DHT22;29217;52.586;13.442;2022-07-17T00:50:36;12.90;99.90
43627;DHT22;29217;52.586;13.442;2022-07-17T00:53:03;12.80;99.90
43627;DHT22;29217;52.586;13.442;2022-07-17T00:55:29;12.80;99.90
43627;DHT22;29217;52.586;13.442;2022-07-17T00:57:55;12.70;99.90
43627;DHT22;29217;52.586;13.442;2022-07-17T01:00:22;12.70;99.90
43627;DHT22;29217;52.586;13.442;2022-07-17T01:02:50;12.80;99.90
43627;DHT22;29217;52.586;13.442;2022-07-17T01:05:18;12.90;99.90
43627;DHT22;29217;52.586;13.442;2022-07-17T01:07:44;12.70;99.90
43627;DHT22;29217;52.586;13.442;2022-07-17T01:10:11;12.60;99.90
43627;DHT22;29217;52.586;13.442;2022-07-17T01:12:37;12.50;99.90
43627;DHT22;29217;52.586;13.442;2022-07-17T01:15:04;12.60;99.90
43627;DHT22;29217;52.586;13.442;2022-07-17T01:17:30;12.50;99.90
43627;DHT22;29217;52.586;13.442;2022-07-17T01:19:56;12.50;99.90
43627;DHT22;29217;52.586;13.442;2022-07-17T01:22:22;12.50;99.90
43627;DHT22;29217;52.586;13.442;2022-07-17T01:24:48;12.50;99.90
43627;DHT22;29217;52.586;13.442;2022-07-17T01:27:13;12.30;99.90
43627;DHT22;29217;52.586;13.442;2022-07-17T01:29:40;12.20;99.90
43627;DHT22;29217;52.586;13.442;2022-07-17T01:32:06;12.30;99.90
43627;DHT22;29217;52.586;13.442;2022-07-17T01:34:31;12.30;99.90
43627;DHT22;29217;52.586;13.442;2022-07-17T01:36:57;12.30;99.90
43627;DHT22;29217;52.586;13.442;2022-07-17T01:39:23;12.30;99.90
43627;DHT22;29217;52.586;13.442;2022-07-17T01:42:07;12.10;99.90
43627;DHT22;29217;52.586;13.442;2022-07-17T01:44:33;12.10;99.90
43627;DHT22;29217;52.586;13.442;2022-07-17T01:46:58;12.10;99.90
43627;DHT22;29217;52.586;13.442;2022-07-17T01:49:24;12.10;99.90
43627;DHT22;29217;52.586;13.442;2022-07-17T01:51:49;12.00;99.90
43627;DHT22;29217;52.586;13.442;2022-07-17T01:54:15;12.10;99.90
43627;DHT22;29217;52.586;13.442;2022-07-17T01:56:40;12.00;99.90
43627;DHT22;29217;52.586;13.442;2022-07-17T01:59:06;12.10;99.90
43627;DHT22;29217;52.586;13.442;2022-07-17T02:01:32;12.00;99.90
43627;DHT22;29217;52.586;13.442;2022-07-17T02:03:57;12.10;99.90
43627;DHT22;29217;52.586;13.442;2022-07-17T02:06:23;12.20;99.90
43627;DHT22;29217;52.586;13.442;2022-07-17T02:08:48;12.20;99.90
43627;DHT22;29217;52.586;13.442;2022-07-17T02:11:16;12.10;99.90
43627;DHT22;29217;52.586;13.442;2022-07-17T02:13:42;12.10;99.90
43627;DHT22;29217;52.586;13.442;2022-07-17T02:16:07;12.10;99.90
43627;DHT22;29217;52.586;13.442;2022-07-17T02:18:34;12.10;99.90
43627;DHT22;29217;52.586;13.442;2022-07-17T02:20:59;12.00;99.90
43627;DHT22;29217;52.586;13.442;2022-07-17T02:23:25;12.00;99.90
43627;DHT22;29217;52.586;13.442;2022-07-17T02:25:50;11.90;99.90
43627;DHT22;29217;52.586;13.442;2022-07-17T02:28:16;11.80;99.90
43627;DHT22;29217;52.586;13.442;2022-07-17T02:30:41;11.80;99.90
43627;DHT22;29217;52.586;13.442;2022-07-17T02:33:07;11.80;99.90
43627;DHT22;29217;52.586;13.442;2022-07-17T02:35:33;11.80;99.90
43627;DHT22;29217;52.586;13.442;2022-07-17T02:37:59;11.70;99.90
43627;DHT22;29217;52.586;13.442;2022-07-17T02:40:25;11.70;99.90
43627;DHT22;29217;52.586;13.442;2022-07-17T02:42:51;11.70;99.90
43627;DHT22;29217;52.586;13.442;2022-07-17T02:45:16;11.70;99.90
43627;DHT22;29217;52.586;13.442;2022-07-17T02:47:46;11.70;99.90
43627;DHT22;29217;52.586;13.442;2022-07-17T02:50:12;11.70;99.90
43627;DHT22;29217;52.586;13.442;2022-07-17T02:52:38;11.70;99.90
43627;DHT22;29217;52.586;13.442;2022-07-17T02:55:04;11.80;99.90
43627;DHT22;29217;52.586;13.442;2022-07-17T02:57:30;11.80;99.90
43627;DHT22;29217;52.586;13.442;2022-07-17T02:59:55;11.70;99.90
43627;DHT22;29217;52.586;13.442;2022-07-17T03:02:21;11.60;99.90
43627;DHT22;29217;52.586;13.442;2022-07-17T03:04:47;11.60;99.90
43627;DHT22;29217;52.586;13.442;2022-07-17T03:07:12;11.60;99.90
43627;DHT22;29217;52.586;13.442;2022-07-17T03:09:38;11.50;99.90
43627;DHT22;29217;52.586;13.442;2022-07-17T03:12:03;11.60;99.90
43627;DHT22;29217;52.586;13.442;2022-07-17T03:14:29;11.60;99.90
43627;DHT22;29217;52.586;13.442;2022-07-17T03:16:55;11.60;99.90
43627;DHT22;29217;52.586;13.442;2022-07-17T03:19:20;11.60;99.90
43627;DHT22;29217;52.586;13.442;2022-07-17T03:21:46;11.70;99.90
43627;DHT22;29217;52.586;13.442;2022-07-17T03:24:11;11.80;99.90
43627;DHT22;29217;52.586;13.442;2022-07-17T03:26:37;11.60;99.90
43627;DHT22;29217;52.586;13.442;2022-07-17T03:29:02;11.60;99.90
43627;DHT22;29217;52.586;13.442;2022-07-17T03:31:28;11.50;99.90
43627;DHT22;29217;52.586;13.442;2022-07-17T03:33:53;11.50;99.90
43627;DHT22;29217;52.586;13.442;2022-07-17T03:36:19;11.50;99.90
43627;DHT22;29217;52.586;13.442;2022-07-17T03:38:45;11.60;99.90
43627;DHT22;29217;52.586;13.442;2022-07-17T03:41:11;11.60;99.90
43627;DHT22;29217;52.586;13.442;2022-07-17T03:43:37;11.70;99.90
43627;DHT22;29217;52.586;13.442;2022-07-17T03:46:02;11.70;99.90
43627;DHT22;29217;52.586;13.442;2022-07-17T03:48:29;11.70;99.90
43627;DHT22;29217;52.586;13.442;2022-07-17T03:50:54;11.70;99.90
43627;DHT22;29217;52.586;13.442;2022-07-17T03:53:20;11.80;99.90
43627;DHT22;29217;52.586;13.442;2022-07-17T03:55:45;11.80;99.90
43627;DHT22;29217;52.586;13.442;2022-07-17T03:58:11;11.80;99.90
43627;DHT22;29217;52.586;13.442;2022-07-17T04:00:36;11.90;99.90
43627;DHT22;29217;52.586;13.442;2022-07-17T04:03:02;11.90;99.90
43627;DHT22;29217;52.586;13.442;2022-07-17T04:05:27;12.00;99.90
43627;DHT22;29217;52.586;13.442;2022-07-17T04:07:53;12.00;99.90
43627;DHT22;29217;52.586;13.442;2022-07-17T04:10:18;12.00;99.90
43627;DHT22;29217;52.586;13.442;2022-07-17T04:12:44;12.10;99.90
43627;DHT22;29217;52.586;13.442;2022-07-17T04:15:10;12.10;99.90
43627;DHT22;29217;52.586;13.442;2022-07-17T04:17:35;12.10;99.90
43627;DHT22;29217;52.586;13.442;2022-07-17T04:20:01;12.10;99.90
43627;DHT22;29217;52.586;13.442;2022-07-17T04:22:27;12.20;99.90
43627;DHT22;29217;52.586;13.442;2022-07-17T04:24:53;12.30;99.90
43627;DHT22;29217;52.586;13.442;2022-07-17T04:27:18;12.30;99.90
43627;DHT22;29217;52.586;13.442;2022-07-17T04:29:44;12.40;99.90
43627;DHT22;29217;52.586;13.442;2022-07-17T04:32:10;12.50;99.90
43627;DHT22;29217;52.586;13.442;2022-07-17T04:34:35;12.60;99.90
43627;DHT22;29217;52.586;13.442;2022-07-17T04:37:02;12.60;99.90
43627;DHT22;29217;52.586;13.442;2022-07-17T04:39:28;12.70;99.90
43627;DHT22;29217;52.586;13.442;2022-07-17T04:41:54;12.70;99.90
43627;DHT22;29217;52.586;13.442;2022-07-17T04:44:19;12.90;99.90
43627;DHT22;29217;52.586;13.442;2022-07-17T04:46:45;12.90;99.90
43627;DHT22;29217;52.586;13.442;2022-07-17T04:49:11;13.00;99.90
43627;DHT22;29217;52.586;13.442;2022-07-17T04:51:37;13.10;99.90
43627;DHT22;29217;52.586;13.442;2022-07-17T04:54:02;13.20;99.90
43627;DHT22;29217;52.586;13.442;2022-07-17T04:56:28;13.30;99.90
43627;DHT22;29217;52.586;13.442;2022-07-17T04:58:53;13.30;99.90
43627;DHT22;29217;52.586;13.442;2022-07-17T05:01:19;13.40;99.90
43627;DHT22;29217;52.586;13.442;2022-07-17T05:03:45;13.50;99.90
43627;DHT22;29217;52.586;13.442;2022-07-17T05:06:10;13.60;99.90
43627;DHT22;29217;52.586;13.442;2022-07-17T05:08:36;13.60;99.90
43627;DHT22;29217;52.586;13.442;2022-07-17T05:11:02;13.80;99.90
43627;DHT22;29217;52.586;13.442;2022-07-17T05:13:27;13.80;99.90
43627;DHT22;29217;52.586;13.442;2022-07-17T05:15:53;13.90;99.90
43627;DHT22;29217;52.586;13.442;2022-07-17T05:18:18;14.00;99.90
43627;DHT22;29217;52.586;13.442;2022-07-17T05:20:44;14.00;99.90
43627;DHT22;29217;52.586;13.442;2022-07-17T05:23:10;14.00;99.90
43627;DHT22;29217;52.586;13.442;2022-07-17T05:25:35;14.10;99.90
43627;DHT22;29217;52.586;13.442;2022-07-17T05:28:01;14.20;99.90
43627;DHT22;29217;52.586;13.442;2022-07-17T05:30:28;14.30;99.90
43627;DHT22;29217;52.586;13.442;2022-07-17T05:32:53;14.30;99.90
43627;DHT22;29217;52.586;13.442;2022-07-17T05:35:19;14.40;99.90
43627;DHT22;29217;52.586;13.442;2022-07-17T05:37:45;14.50;99.90
43627;DHT22;29217;52.586;13.442;2022-07-17T05:40:10;14.50;99.90
43627;DHT22;29217;52.586;13.442;2022-07-17T05:42:36;14.60;99.90
43627;DHT22;29217;52.586;13.442;2022-07-17T05:45:02;14.70;99.90
43627;DHT22;29217;52.586;13.442;2022-07-17T05:47:28;14.80;99.90
43627;DHT22;29217;52.586;13.442;2022-07-17T05:49:54;14.80;99.90
43627;DHT22;29217;52.586;13.442;2022-07-17T05:52:19;14.90;99.90
43627;DHT22;29217;52.586;13.442;2022-07-17T05:54:45;14.90;99.90
43627;DHT22;29217;52.586;13.442;2022-07-17T05:57:10;15.10;99.90
43627;DHT22;29217;52.586;13.442;2022-07-17T05:59:36;15.10;99.90
43627;DHT22;29217;52.586;13.442;2022-07-17T06:02:01;15.30;99.90
43627;DHT22;29217;52.586;13.442;2022-07-17T06:04:27;15.20;99.90
43627;DHT22;29217;52.586;13.442;2022-07-17T06:06:52;15.40;99.90
43627;DHT22;29217;52.586;13.442;2022-07-17T06:09:18;15.50;99.90
43627;DHT22;29217;52.586;13.442;2022-07-17T06:11:44;15.50;99.90
43627;DHT22;29217;52.586;13.442;2022-07-17T06:14:09;15.50;99.90
43627;DHT22;29217;52.586;13.442;2022-07-17T06:16:35;15.70;99.90
43627;DHT22;29217;52.586;13.442;2022-07-17T06:19:00;15.60;99.90
43627;DHT22;29217;52.586;13.442;2022-07-17T06:21:26;15.70;99.90
43627;DHT22;29217;52.586;13.442;2022-07-17T06:23:51;15.80;99.90
43627;DHT22;29217;52.586;13.442;2022-07-17T06:26:17;15.90;99.90
43627;DHT22;29217;52.586;13.442;2022-07-17T06:28:42;16.00;99.90
43627;DHT22;29217;52.586;13.442;2022-07-17T06:31:08;16.10;99.90
43627;DHT22;29217;52.586;13.442;2022-07-17T06:33:33;16.30;99.90
43627;DHT22;29217;52.586;13.442;2022-07-17T06:36:00;16.40;99.90
43627;DHT22;29217;52.586;13.442;2022-07-17T06:38:25;16.50;99.90
43627;DHT22;29217;52.586;13.442;2022-07-17T06:40:51;16.60;99.90
43627;DHT22;29217;52.586;13.442;2022-07-17T06:43:16;16.70;99.90
43627;DHT22;29217;52.586;13.442;2022-07-17T06:45:42;16.80;99.90
43627;DHT22;29217;52.586;13.442;2022-07-17T06:48:07;16.80;99.90
43627;DHT22;29217;52.586;13.442;2022-07-17T06:50:34;16.80;99.90
43627;DHT22;29217;52.586;13.442;2022-07-17T06:53:00;16.80;99.90
43627;DHT22;29217;52.586;13.442;2022-07-17T06:55:25;16.70;99.90
43627;DHT22;29217;52.586;13.442;2022-07-17T06:57:51;16.70;99.90
43627;DHT22;29217;52.586;13.442;2022-07-17T07:00:16;16.40;99.90
43627;DHT22;29217;52.586;13.442;2022-07-17T07:02:43;16.30;99.90
43627;DHT22;29217;52.586;13.442;2022-07-17T07:05:09;16.40;99.90
43627;DHT22;29217;52.586;13.442;2022-07-17T07:07:35;16.40;99.90
43627;DHT22;29217;52.586;13.442;2022-07-17T07:10:00;16.50;99.90
43627;DHT22;29217;52.586;13.442;2022-07-17T07:12:26;16.60;99.90
43627;DHT22;29217;52.586;13.442;2022-07-17T07:14:51;16.50;99.90
43627;DHT22;29217;52.586;13.442;2022-07-17T07:17:17;16.60;99.90
43627;DHT22;29217;52.586;13.442;2022-07-17T07:19:42;16.50;99.90
43627;DHT22;29217;52.586;13.442;2022-07-17T07:22:08;16.40;99.90
43627;DHT22;29217;52.586;13.442;2022-07-17T07:24:34;16.30;99.90
43627;DHT22;29217;52.586;13.442;2022-07-17T07:26:59;16.30;99.90
43627;DHT22;29217;52.586;13.442;2022-07-17T07:29:25;16.40;99.90
43627;DHT22;29217;52.586;13.442;2022-07-17T07:31:50;16.60;99.90
43627;DHT22;29217;52.586;13.442;2022-07-17T07:34:16;16.70;99.90
43627;DHT22;29217;52.586;13.442;2022-07-17T07:36:41;16.70;99.90
43627;DHT22;29217;52.586;13.442;2022-07-17T07:39:07;16.70;99.90
43627;DHT22;29217;52.586;13.442;2022-07-17T07:41:32;16.80;99.90
43627;DHT22;29217;52.586;13.442;2022-07-17T07:43:58;16.90;99.90
43627;DHT22;29217;52.586;13.442;2022-07-17T07:46:23;16.90;99.90
43627;DHT22;29217;52.586;13.442;2022-07-17T07:48:49;16.80;99.90
43627;DHT22;29217;52.586;13.442;2022-07-17T07:51:15;16.70;99.90
43627;DHT22;29217;52.586;13.442;2022-07-17T07:53:40;16.60;99.90
43627;DHT22;29217;52.586;13.442;2022-07-17T07:56:06;16.60;99.90
43627;DHT22;29217;52.586;13.442;2022-07-17T07:58:31;16.60;99.90
43627;DHT22;29217;52.586;13.442;2022-07-17T08:00:57;16.50;99.90
43627;DHT22;29217;52.586;13.442;2022-07-17T08:03:22;16.60;99.90
43627;DHT22;29217;52.586;13.442;2022-07-17T08:05:48;16.60;99.90
43627;DHT22;29217;52.586;13.442;2022-07-17T08:08:13;16.80;99.90
43627;DHT22;29217;52.586;13.442;2022-07-17T08:10:39;16.80;99.90
43627;DHT22;29217;52.586;13.442;2022-07-17T08:13:04;16.80;99.90
43627;DHT22;29217;52.586;13.442;2022-07-17T08:15:30;16.80;99.90
43627;DHT22;29217;52.586;13.442;2022-07-17T08:17:56;16.90;99.90
43627;DHT22;29217;52.586;13.442;2022-07-17T08:20:22;16.90;99.90
43627;DHT22;29217;52.586;13.442;2022-07-17T08:22:49;16.80;99.90
43627;DHT22;29217;52.586;13.442;2022-07-17T08:25:15;16.80;99.90
43627;DHT22;29217;52.586;13.442;2022-07-17T08:27:41;16.80;99.90
43627;DHT22;29217;52.586;13.442;2022-07-17T08:30:09;16.70;99.90
43627;DHT22;29217;52.586;13.442;2022-07-17T08:32:36;16.80;99.90
43627;DHT22;29217;52.586;13.442;2022-07-17T08:35:02;16.80;99.90
43627;DHT22;29217;52.586;13.442;2022-07-17T08:37:28;16.90;99.90
43627;DHT22;29217;52.586;13.442;2022-07-17T08:39:54;17.00;99.90
43627;DHT22;29217;52.586;13.442;2022-07-17T08:42:20;17.10;99.90
43627;DHT22;29217;52.586;13.442;2022-07-17T08:44:46;17.20;99.90
43627;DHT22;29217;52.586;13.442;2022-07-17T08:47:13;17.30;99.90
43627;DHT22;29217;52.586;13.442;2022-07-17T08:49:43;17.40;99.90
43627;DHT22;29217;52.586;13.442;2022-07-17T08:52:10;17.50;99.90
43627;DHT22;29217;52.586;13.442;2022-07-17T08:54:36;17.50;99.90
43627;DHT22;29217;52.586;13.442;2022-07-17T08:57:02;17.40;99.90
43627;DHT22;29217;52.586;13.442;2022-07-17T08:59:29;17.30;99.90
43627;DHT22;29217;52.586;13.442;2022-07-17T09:01:54;17.40;99.90
43627;DHT22;29217;52.586;13.442;2022-07-17T09:04:20;17.40;99.90
43627;DHT22;29217;52.586;13.442;2022-07-17T09:06:45;17.40;99.90
43627;DHT22;29217;52.586;13.442;2022-07-17T09:09:13;17.50;99.90
43627;DHT22;29217;52.586;13.442;2022-07-17T09:11:49;17.60;99.90
43627;DHT22;29217;52.586;13.442;2022-07-17T09:14:16;17.70;99.90
43627;DHT22;29217;52.586;13.442;2022-07-17T09:16:50;17.90;99.90
43627;DHT22;29217;52.586;13.442;2022-07-17T09:19:30;17.90;99.90
43627;DHT22;29217;52.586;13.442;2022-07-17T09:24:45;18.00;99.90
43627;DHT22;29217;52.586;13.442;2022-07-17T09:27:12;18.20;99.90
43627;DHT22;29217;52.586;13.442;2022-07-17T09:30:05;18.30;99.90
43627;DHT22;29217;52.586;13.442;2022-07-17T09:32:37;18.50;99.90
43627;DHT22;29217;52.586;13.442;2022-07-17T09:35:05;18.70;99.90
43627;DHT22;29217;52.586;13.442;2022-07-17T09:37:32;18.80;99.90
43627;DHT22;29217;52.586;13.442;2022-07-17T09:39:58;18.70;99.90
43627;DHT22;29217;52.586;13.442;2022-07-17T09:42:33;18.70;99.90
43627;DHT22;29217;52.586;13.442;2022-07-17T09:47:26;18.60;99.90
43627;DHT22;29217;52.586;13.442;2022-07-17T09:49:53;18.50;99.90
43627;DHT22;29217;52.586;13.442;2022-07-17T09:52:20;18.60;99.90
43627;DHT22;29217;52.586;13.442;2022-07-17T09:54:47;18.60;99.90
43627;DHT22;29217;52.586;13.442;2022-07-17T09:57:14;18.50;99.90
43627;DHT22;29217;52.586;13.442;2022-07-17T09:59:40;18.40;99.90
43627;DHT22;29217;52.586;13.442;2022-07-17T10:02:06;18.50;99.90
43627;DHT22;29217;52.586;13.442;2022-07-17T10:04:32;18.70;99.90
43627;DHT22;29217;52.586;13.442;2022-07-17T10:06:59;18.70;99.90
43627;DHT22;29217;52.586;13.442;2022-07-17T10:09:25;18.80;99.90
43627;DHT22;29217;52.586;13.442;2022-07-17T10:11:51;18.80;99.90
43627;DHT22;29217;52.586;13.442;2022-07-17T10:14:17;18.80;99.90
43627;DHT22;29217;52.586;13.442;2022-07-17T10:16:44;18.80;99.90
43627;DHT22;29217;52.586;13.442;2022-07-17T10:19:19;18.70;99.90
43627;DHT22;29217;52.586;13.442;2022-07-17T10:21:59;18.70;99.90
43627;DHT22;29217;52.586;13.442;2022-07-17T10:24:27;19.00;99.90
43627;DHT22;29217;52.586;13.442;2022-07-17T10:26:53;18.90;99.90
43627;DHT22;29217;52.586;13.442;2022-07-17T10:31:54;18.70;99.90
43627;DHT22;29217;52.586;13.442;2022-07-17T10:34:36;19.00;99.90
43627;DHT22;29217;52.586;13.442;2022-07-17T10:37:27;19.20;99.90
43627;DHT22;29217;52.586;13.442;2022-07-17T10:45:15;19.80;99.90
43627;DHT22;29217;52.586;13.442;2022-07-17T10:48:11;20.10;99.90
43627;DHT22;29217;52.586;13.442;2022-07-17T10:50:42;20.20;99.90
43627;DHT22;29217;52.586;13.442;2022-07-17T10:53:17;20.20;99.90
43627;DHT22;29217;52.586;13.442;2022-07-17T10:55:47;19.90;99.90
43627;DHT22;29217;52.586;13.442;2022-07-17T10:58:28;19.90;99.90
43627;DHT22;29217;52.586;13.442;2022-07-17T11:01:08;20.00;99.90
43627;DHT22;29217;52.586;13.442;2022-07-17T11:08:52;20.40;99.90
43627;DHT22;29217;52.586;13.442;2022-07-17T11:11:20;20.70;99.90
43627;DHT22;29217;52.586;13.442;2022-07-17T11:13:46;20.90;99.90
43627;DHT22;29217;52.586;13.442;2022-07-17T11:16:22;21.10;99.90
43627;DHT22;29217;52.586;13.442;2022-07-17T11:18:48;21.40;99.90
43627;DHT22;29217;52.586;13.442;2022-07-17T11:21:13;21.70;99.90
43627;DHT22;29217;52.586;13.442;2022-07-17T11:23:53;21.90;99.90
43627;DHT22;29217;52.586;13.442;2022-07-17T11:26:20;22.10;99.90
43627;DHT22;29217;52.586;13.442;2022-07-17T11:28:47;22.40;99.90
43627;DHT22;29217;52.586;13.442;2022-07-17T11:31:22;22.40;99.90
43627;DHT22;29217;52.586;13.442;2022-07-17T11:33:49;22.50;99.90
43627;DHT22;29217;52.586;13.442;2022-07-17T11:36:30;22.60;99.90
43627;DHT22;29217;52.586;13.442;2022-07-17T11:39:07;22.90;99.90
43627;DHT22;29217;52.586;13.442;2022-07-17T11:41:43;23.00;99.90
43627;DHT22;29217;52.586;13.442;2022-07-17T11:44:11;22.90;99.90
43627;DHT22;29217;52.586;13.442;2022-07-17T11:46:39;23.00;99.90
43627;DHT22;29217;52.586;13.442;2022-07-17T11:49:06;23.00;99.90
43627;DHT22;29217;52.586;13.442;2022-07-17T11:51:41;23.30;99.90
43627;DHT22;29217;52.586;13.442;2022-07-17T11:54:16;23.70;99.90
43627;DHT22;29217;52.586;13.442;2022-07-17T11:56:51;23.90;99.90
43627;DHT22;29217;52.586;13.442;2022-07-17T11:59:24;24.00;99.90
43627;DHT22;29217;52.586;13.442;2022-07-17T12:01:50;24.30;99.90
43627;DHT22;29217;52.586;13.442;2022-07-17T12:04:16;24.80;99.90
43627;DHT22;29217;52.586;13.442;2022-07-17T12:06:42;25.10;99.90
43627;DHT22;29217;52.586;13.442;2022-07-17T12:09:07;25.10;99.90
43627;DHT22;29217;52.586;13.442;2022-07-17T12:11:44;25.70;99.90
43627;DHT22;29217;52.586;13.442;2022-07-17T12:14:10;25.80;99.90
43627;DHT22;29217;52.586;13.442;2022-07-17T12:16:36;26.00;99.90
43627;DHT22;29217;52.586;13.442;2022-07-17T12:19:10;26.30;99.90
43627;DHT22;29217;52.586;13.442;2022-07-17T12:22:09;26.60;99.90
43627;DHT22;29217;52.586;13.442;2022-07-17T12:24:42;26.30;99.90
43627;DHT22;29217;52.586;13.442;2022-07-17T12:27:14;26.10;99.90
43627;DHT22;29217;52.586;13.442;2022-07-17T12:29:41;25.90;99.90
43627;DHT22;29217;52.586;13.442;2022-07-17T12:32:12;26.00;99.90
43627;DHT22;29217;52.586;13.442;2022-07-17T12:34:41;26.10;99.90
43627;DHT22;29217;52.586;13.442;2022-07-17T12:37:14;26.20;99.90
43627;DHT22;29217;52.586;13.442;2022-07-17T12:39:40;25.50;99.90
43627;DHT22;29217;52.586;13.442;2022-07-17T12:42:06;25.70;99.90
43627;DHT22;29217;52.586;13.442;2022-07-17T12:44:33;25.40;99.90
43627;DHT22;29217;52.586;13.442;2022-07-17T12:46:58;25.00;99.90
43627;DHT22;29217;52.586;13.442;2022-07-17T12:49:24;24.80;99.90
43627;DHT22;29217;52.586;13.442;2022-07-17T12:51:51;25.00;99.90
43627;DHT22;29217;52.586;13.442;2022-07-17T12:54:16;24.90;99.90
43627;DHT22;29217;52.586;13.442;2022-07-17T12:56:42;25.40;99.90
43627;DHT22;29217;52.586;13.442;2022-07-17T12:59:07;25.40;99.90
43627;DHT22;29217;52.586;13.442;2022-07-17T13:01:34;25.50;99.90
43627;DHT22;29217;52.586;13.442;2022-07-17T13:04:00;25.50;99.90
43627;DHT22;29217;52.586;13.442;2022-07-17T13:06:25;25.50;99.90
43627;DHT22;29217;52.586;13.442;2022-07-17T13:08:51;25.60;99.90
43627;DHT22;29217;52.586;13.442;2022-07-17T13:11:17;25.70;99.90
43627;DHT22;29217;52.586;13.442;2022-07-17T13:13:42;25.70;99.90
43627;DHT22;29217;52.586;13.442;2022-07-17T13:16:08;25.70;99.90
43627;DHT22;29217;52.586;13.442;2022-07-17T13:18:34;25.60;99.90
43627;DHT22;29217;52.586;13.442;2022-07-17T13:20:59;25.40;99.90
43627;DHT22;29217;52.586;13.442;2022-07-17T13:23:25;25.60;99.90
43627;DHT22;29217;52.586;13.442;2022-07-17T13:25:50;25.90;99.90
43627;DHT22;29217;52.586;13.442;2022-07-17T13:28:16;26.00;99.90
43627;DHT22;29217;52.586;13.442;2022-07-17T13:30:41;26.20;99.90
43627;DHT22;29217;52.586;13.442;2022-07-17T13:33:07;26.20;99.90
43627;DHT22;29217;52.586;13.442;2022-07-17T13:35:33;26.10;99.90
43627;DHT22;29217;52.586;13.442;2022-07-17T13:37:58;26.40;99.90
43627;DHT22;29217;52.586;13.442;2022-07-17T13:40:28;26.40;99.90
43627;DHT22;29217;52.586;13.442;2022-07-17T13:42:54;26.70;99.90
43627;DHT22;29217;52.586;13.442;2022-07-17T13:45:20;26.70;99.90
43627;DHT22;29217;52.586;13.442;2022-07-17T13:47:45;26.70;99.90
43627;DHT22;29217;52.586;13.442;2022-07-17T13:50:11;27.00;99.90
43627;DHT22;29217;52.586;13.442;2022-07-17T13:52:37;27.10;99.90
43627;DHT22;29217;52.586;13.442;2022-07-17T13:55:04;27.00;99.90
43627;DHT22;29217;52.586;13.442;2022-07-17T13:57:30;27.00;99.90
43627;DHT22;29217;52.586;13.442;2022-07-17T13:59:56;26.80;99.90
43627;DHT22;29217;52.586;13.442;2022-07-17T14:02:23;26.90;99.90
43627;DHT22;29217;52.586;13.442;2022-07-17T14:04:48;27.00;99.90
43627;DHT22;29217;52.586;13.442;2022-07-17T14:07:14;27.20;99.90
43627;DHT22;29217;52.586;13.442;2022-07-17T14:09:40;27.20;99.90
43627;DHT22;29217;52.586;13.442;2022-07-17T14:12:06;27.20;99.90
43627;DHT22;29217;52.586;13.442;2022-07-17T14:14:32;27.30;99.90
43627;DHT22;29217;52.586;13.442;2022-07-17T14:16:57;27.40;99.90
43627;DHT22;29217;52.586;13.442;2022-07-17T14:19:23;27.80;99.90
43627;DHT22;29217;52.586;13.442;2022-07-17T14:21:48;27.80;99.90
43627;DHT22;29217;52.586;13.442;2022-07-17T14:24:15;27.80;99.90
43627;DHT22;29217;52.586;13.442;2022-07-17T14:26:40;27.80;99.90
43627;DHT22;29217;52.586;13.442;2022-07-17T14:29:08;27.70;99.90
43627;DHT22;29217;52.586;13.442;2022-07-17T14:31:34;27.70;99.90
43627;DHT22;29217;52.586;13.442;2022-07-17T14:34:00;27.80;99.90
43627;DHT22;29217;52.586;13.442;2022-07-17T14:36:25;27.20;99.90
43627;DHT22;29217;52.586;13.442;2022-07-17T14:38:51;26.70;99.90
43627;DHT22;29217;52.586;13.442;2022-07-17T14:41:17;26.40;99.90
43627;DHT22;29217;52.586;13.442;2022-07-17T14:43:43;26.40;99.90
43627;DHT22;29217;52.586;13.442;2022-07-17T14:46:10;26.30;99.90
43627;DHT22;29217;52.586;13.442;2022-07-17T14:48:35;26.50;99.90
43627;DHT22;29217;52.586;13.442;2022-07-17T14:51:01;26.60;99.90
43627;DHT22;29217;52.586;13.442;2022-07-17T14:53:26;26.60;99.90
43627;DHT22;29217;52.586;13.442;2022-07-17T14:55:52;26.50;99.90
43627;DHT22;29217;52.586;13.442;2022-07-17T14:58:17;26.30;99.90
43627;DHT22;29217;52.586;13.442;2022-07-17T15:00:43;26.00;99.90
43627;DHT22;29217;52.586;13.442;2022-07-17T15:03:09;25.70;99.90
43627;DHT22;29217;52.586;13.442;2022-07-17T15:05:35;25.50;99.90
43627;DHT22;29217;52.586;13.442;2022-07-17T15:08:01;25.40;99.90
43627;DHT22;29217;52.586;13.442;2022-07-17T15:10:26;25.30;99.90
43627;DHT22;29217;52.586;13.442;2022-07-17T15:12:52;25.00;99.90
43627;DHT22;29217;52.586;13.442;2022-07-17T15:15:17;25.00;99.90
43627;DHT22;29217;52.586;13.442;2022-07-17T15:17:43;24.90;99.90
43627;DHT22;29217;52.586;13.442;2022-07-17T15:20:09;24.80;99.90
43627;DHT22;29217;52.586;13.442;2022-07-17T15:22:35;24.70;99.90
43627;DHT22;29217;52.586;13.442;2022-07-17T15:25:00;24.60;99.90
43627;DHT22;29217;52.586;13.442;2022-07-17T15:27:26;24.60;99.90
43627;DHT22;29217;52.586;13.442;2022-07-17T15:29:51;24.50;99.90
43627;DHT22;29217;52.586;13.442;2022-07-17T15:32:17;24.50;99.90